createdAt,value
2023-02-12T00:01:18.274Z,32.03
2023-02-12T00:03:45.605Z,27.17
2023-02-12T00:06:15.532Z,29.80
2023-02-12T00:08:43.227Z,26.90
2023-02-12T00:11:17.551Z,26.87
2023-02-12T00:13:45.160Z,28.37
2023-02-12T00:16:15.924Z,30.73
2023-02-12T00:18:43.521Z,29.87
2023-02-12T00:21:11.625Z,28.10
2023-02-12T00:23:41.215Z,29.43
2023-02-12T00:26:11.237Z,26.57
2023-02-12T00:28:38.768Z,28.13
2023-02-12T00:31:16.665Z,27.27
2023-02-12T00:33:44.138Z,28.00
2023-02-12T00:36:16.827Z,29.00
2023-02-12T00:38:44.798Z,27.83
2023-02-12T00:41:12.897Z,27.30
2023-02-12T00:43:39.869Z,30.93
2023-02-12T00:46:07.072Z,28.47
2023-02-12T00:48:35.521Z,31.30
2023-02-12T00:51:03.019Z,28.07
2023-02-12T00:53:30.941Z,27.63
2023-02-12T00:55:58.656Z,30.03
2023-02-12T00:58:25.600Z,29.53
2023-02-12T01:00:53.793Z,28.33
2023-02-12T01:03:21.296Z,28.50
2023-02-12T01:05:48.311Z,29.77
2023-02-12T01:08:17.073Z,29.87
2023-02-12T01:10:44.941Z,29.27
2023-02-12T01:13:15.876Z,27.13
2023-02-12T01:15:43.013Z,27.30
2023-02-12T01:18:10.106Z,31.83
2023-02-12T01:20:37.152Z,29.67
2023-02-12T01:23:06.925Z,29.67
2023-02-12T01:25:34.126Z,29.87
2023-02-12T01:28:01.061Z,31.20
2023-02-12T01:30:27.969Z,25.10
2023-02-12T01:32:55.576Z,31.37
2023-02-12T01:35:22.553Z,31.30
2023-02-12T01:37:49.459Z,24.90
2023-02-12T01:40:18.827Z,28.13
2023-02-12T01:42:45.764Z,25.60
2023-02-12T01:45:12.724Z,26.57
2023-02-12T01:47:41.461Z,28.10
2023-02-12T01:50:12.681Z,30.03
2023-02-12T01:52:45.160Z,28.33
2023-02-12T01:55:13.606Z,27.13
2023-02-12T01:57:46.081Z,27.20
2023-02-12T02:00:25.349Z,25.13
2023-02-12T02:02:57.282Z,22.70
2023-02-12T02:05:44.313Z,26.97
2023-02-12T02:08:12.545Z,23.93
2023-02-12T02:10:39.709Z,22.93
2023-02-12T02:13:25.524Z,27.37
2023-02-12T02:16:00.496Z,27.73
2023-02-12T02:18:45.495Z,24.23
2023-02-12T02:21:36.877Z,28.23
2023-02-12T02:24:51.309Z,24.40
2023-02-12T02:27:50.975Z,25.37
2023-02-12T02:30:34.555Z,24.80
2023-02-12T02:33:47.847Z,29.57
2023-02-12T02:36:18.175Z,27.47
2023-02-12T02:38:53.520Z,24.90
2023-02-12T02:41:31.272Z,26.80
2023-02-12T02:44:00.002Z,31.40
2023-02-12T02:46:42.926Z,25.47
2023-02-12T02:49:20.088Z,28.90
2023-02-12T02:51:54.794Z,25.63
2023-02-12T02:54:54.103Z,23.03
2023-02-12T02:57:31.020Z,25.90
2023-02-12T03:00:26.456Z,24.10
2023-02-12T03:03:02.625Z,26.70
2023-02-12T03:05:35.821Z,24.27
2023-02-12T03:08:27.166Z,24.50
2023-02-12T03:11:23.133Z,26.30
2023-02-12T03:14:03.018Z,25.60
2023-02-12T03:16:40.780Z,22.03
2023-02-12T03:19:32.909Z,24.87
2023-02-12T03:22:23.469Z,21.97
2023-02-12T03:25:05.636Z,22.50
2023-02-12T03:27:38.839Z,27.30
2023-02-12T03:30:07.902Z,26.33
2023-02-12T03:32:53.202Z,26.37
2023-02-12T03:35:27.749Z,31.63
2023-02-12T03:38:13.643Z,26.17
2023-02-12T03:41:11.995Z,26.70
2023-02-12T03:43:50.472Z,26.67
2023-02-12T03:46:52.081Z,24.60
2023-02-12T03:49:34.850Z,27.77
2023-02-12T03:52:03.274Z,30.20
2023-02-12T03:54:30.482Z,29.73
2023-02-12T03:57:08.725Z,29.07
2023-02-12T03:59:38.296Z,28.50
2023-02-12T04:02:05.912Z,30.33
2023-02-12T04:04:33.480Z,28.97
2023-02-12T04:07:01.045Z,33.03
2023-02-12T04:09:29.215Z,27.37
2023-02-12T04:12:57.484Z,27.57
2023-02-12T04:16:33.310Z,28.30
2023-02-12T04:19:01.628Z,29.73
2023-02-12T04:22:19.568Z,27.40
2023-02-12T04:25:04.168Z,26.73
2023-02-12T04:28:11.102Z,26.17
2023-02-12T04:30:48.670Z,27.13
2023-02-12T04:33:21.343Z,26.93
2023-02-12T04:36:03.738Z,25.40
2023-02-12T04:38:44.841Z,27.37
2023-02-12T04:41:12.100Z,30.50
2023-02-12T04:43:39.008Z,28.20
2023-02-12T04:46:08.644Z,28.10
2023-02-12T04:48:48.037Z,27.10
2023-02-12T04:51:14.924Z,25.37
2023-02-12T04:53:41.784Z,28.60
2023-02-12T04:56:13.110Z,29.13
2023-02-12T04:58:41.366Z,22.93
2023-02-12T05:01:10.262Z,23.47
2023-02-12T05:03:37.676Z,27.33
2023-02-12T05:06:07.523Z,23.40
2023-02-12T05:08:34.640Z,23.93
2023-02-12T05:11:09.874Z,31.93
2023-02-12T05:13:37.630Z,29.30
2023-02-12T05:16:07.228Z,27.80
2023-02-12T05:18:36.406Z,24.40
2023-02-12T05:21:05.290Z,34.00
2023-02-12T05:23:35.803Z,30.63
2023-02-12T05:26:06.945Z,24.23
2023-02-12T05:28:34.107Z,25.00
2023-02-12T05:31:08.537Z,26.50
2023-02-12T05:33:35.856Z,23.10
2023-02-12T05:36:13.140Z,25.80
2023-02-12T05:38:40.354Z,27.60
2023-02-12T05:41:11.438Z,24.47
2023-02-12T05:43:38.766Z,29.43
2023-02-12T05:46:06.971Z,27.43
2023-02-12T05:48:35.354Z,29.60
2023-02-12T05:51:11.244Z,30.67
2023-02-12T05:53:40.340Z,29.30
2023-02-12T05:56:13.723Z,34.40
2023-02-12T05:58:44.129Z,30.47
2023-02-12T06:01:27.880Z,30.30
2023-02-12T06:03:55.620Z,30.03
2023-02-12T06:06:26.335Z,31.87
2023-02-12T06:08:53.560Z,27.40
2023-02-12T06:11:20.908Z,27.20
2023-02-12T06:13:48.577Z,29.57
2023-02-12T06:16:28.169Z,32.47
2023-02-12T06:18:56.512Z,26.73
2023-02-12T06:21:25.875Z,27.23
2023-02-12T06:23:53.302Z,27.47
2023-02-12T06:26:21.673Z,29.67
2023-02-12T06:28:49.658Z,29.60
2023-02-12T06:31:28.546Z,27.43
2023-02-12T06:34:00.830Z,32.03
2023-02-12T06:36:27.856Z,32.13
2023-02-12T06:38:54.849Z,34.20
2023-02-12T06:41:22.928Z,30.30
2023-02-12T06:43:50.090Z,33.87
2023-02-12T06:46:17.482Z,32.93
2023-02-12T06:48:44.465Z,31.23
2023-02-12T06:51:22.961Z,35.63
2023-02-12T06:53:53.152Z,33.30
2023-02-12T06:56:22.380Z,37.40
2023-02-12T06:58:58.220Z,39.47
2023-02-12T07:01:27.986Z,38.23
2023-02-12T07:04:02.097Z,32.90
2023-02-12T07:06:31.728Z,33.37
2023-02-12T07:08:59.367Z,37.03
2023-02-12T07:11:30.574Z,32.20
2023-02-12T07:13:57.565Z,35.13
2023-02-12T07:16:25.241Z,36.30
2023-02-12T07:18:52.501Z,33.40
2023-02-12T07:21:20.458Z,35.43
2023-02-12T07:23:52.860Z,35.37
2023-02-12T07:26:21.856Z,38.93
2023-02-12T07:28:50.895Z,36.20
2023-02-12T07:31:23.564Z,36.60
2023-02-12T07:33:57.895Z,33.90
2023-02-12T07:36:27.296Z,34.07
2023-02-12T07:38:55.336Z,37.73
2023-02-12T07:41:31.945Z,37.90
2023-02-12T07:44:07.505Z,39.83
2023-02-12T07:46:53.920Z,40.17
2023-02-12T07:49:22.528Z,37.00
2023-02-12T07:51:50.474Z,38.13
2023-02-12T07:54:17.751Z,39.77
2023-02-12T07:56:47.118Z,36.37
2023-02-12T07:59:17.524Z,39.10
2023-02-12T08:01:51.572Z,39.93
2023-02-12T08:04:22.226Z,39.30
2023-02-12T08:06:52.309Z,40.43
2023-02-12T08:09:22.930Z,38.27
2023-02-12T08:11:50.281Z,40.40
2023-02-12T08:14:20.410Z,39.87
2023-02-12T08:16:49.125Z,35.83
2023-02-12T08:19:21.694Z,39.93
2023-02-12T08:21:54.350Z,39.47
2023-02-12T08:24:24.498Z,41.33
2023-02-12T08:26:52.352Z,38.70
2023-02-12T08:29:24.516Z,40.53
2023-02-12T08:31:57.321Z,41.53
2023-02-12T08:34:34.934Z,44.23
2023-02-12T08:37:02.375Z,41.40
2023-02-12T08:39:30.640Z,46.60
2023-02-12T08:41:59.352Z,46.40
2023-02-12T08:44:26.520Z,39.70
2023-02-12T08:46:55.703Z,40.20
2023-02-12T08:49:29.144Z,37.80
2023-02-12T08:51:59.141Z,40.20
2023-02-12T08:54:30.083Z,37.67
2023-02-12T08:56:59.183Z,36.23
2023-02-12T08:59:26.568Z,37.27
2023-02-12T09:01:54.504Z,38.50
2023-02-12T09:04:25.142Z,35.03
2023-02-12T09:06:53.084Z,37.43
2023-02-12T09:09:20.821Z,38.80
2023-02-12T09:11:48.297Z,39.17
2023-02-12T09:14:18.851Z,34.00
2023-02-12T09:16:45.965Z,36.70
2023-02-12T09:19:14.922Z,34.63
2023-02-12T09:21:42.810Z,38.63
2023-02-12T09:24:10.526Z,36.03
2023-02-12T09:26:37.450Z,36.57
2023-02-12T09:29:05.120Z,30.83
2023-02-12T09:31:33.348Z,34.20
2023-02-12T09:34:05.062Z,37.77
2023-02-12T09:36:32.945Z,34.90
2023-02-12T09:39:00.530Z,33.97
2023-02-12T09:41:51.988Z,38.43
2023-02-12T09:44:37.110Z,36.83
2023-02-12T09:47:09.993Z,32.37
2023-02-12T09:49:51.802Z,33.83
2023-02-12T09:52:24.786Z,35.00
2023-02-12T09:54:51.879Z,36.60
2023-02-12T09:57:35.114Z,36.20
2023-02-12T10:00:25.474Z,38.77
2023-02-12T10:02:53.696Z,35.90
2023-02-12T10:05:35.016Z,35.87
2023-02-12T10:08:39.910Z,39.10
2023-02-12T10:11:28.642Z,34.13
2023-02-12T10:14:21.330Z,40.03
2023-02-12T10:17:12.896Z,37.13
2023-02-12T10:19:57.552Z,38.70
2023-02-12T10:22:57.349Z,35.07
2023-02-12T10:26:00.682Z,32.60
2023-02-12T10:28:34.958Z,37.30
2023-02-12T10:31:37.911Z,36.77
2023-02-12T10:34:20.297Z,36.27
2023-02-12T10:36:50.019Z,37.13
2023-02-12T10:39:48.928Z,32.27
2023-02-12T10:42:24.398Z,37.47
2023-02-12T10:44:51.525Z,35.30
2023-02-12T10:47:22.041Z,36.53
2023-02-12T10:49:57.977Z,30.97
2023-02-12T10:52:55.394Z,34.80
2023-02-12T10:55:32.433Z,33.67
2023-02-12T10:58:01.699Z,33.57
2023-02-12T11:00:37.842Z,32.27
2023-02-12T11:03:19.919Z,36.63
2023-02-12T11:05:48.109Z,32.17
2023-02-12T11:08:38.377Z,34.97
2023-02-12T11:11:12.772Z,32.70
2023-02-12T11:13:45.819Z,33.77
2023-02-12T11:16:13.602Z,33.73
2023-02-12T11:18:41.942Z,33.90
2023-02-12T11:21:11.874Z,31.20
2023-02-12T11:23:45.174Z,33.63
2023-02-12T11:26:18.261Z,32.63
2023-02-12T11:28:59.397Z,36.17
2023-02-12T11:31:30.069Z,31.53
2023-02-12T11:34:09.576Z,35.80
2023-02-12T11:36:49.572Z,28.40
2023-02-12T11:39:36.967Z,36.17
2023-02-12T11:42:16.446Z,29.83
2023-02-12T11:44:55.843Z,29.23
2023-02-12T11:47:27.685Z,27.80
2023-02-12T11:50:03.352Z,29.50
2023-02-12T11:52:34.293Z,32.90
2023-02-12T11:55:07.384Z,32.97
2023-02-12T11:57:47.469Z,39.43
2023-02-12T12:00:23.015Z,32.37
2023-02-12T12:03:01.669Z,31.10
2023-02-12T12:05:36.931Z,28.67
2023-02-12T12:08:18.778Z,21.83
2023-02-12T12:10:57.384Z,24.37
2023-02-12T12:13:34.555Z,17.80
2023-02-12T12:16:36.786Z,16.60
2023-02-12T12:19:37.554Z,16.47
2023-02-12T12:22:41.925Z,20.13
2023-02-12T12:25:23.054Z,22.40
2023-02-12T12:28:17.632Z,19.70
2023-02-12T12:31:19.848Z,20.40
2023-02-12T12:34:15.134Z,17.07
2023-02-12T12:37:29.368Z,17.50
2023-02-12T12:40:20.441Z,16.17
2023-02-12T12:43:03.525Z,17.47
2023-02-12T12:45:50.273Z,10.60
2023-02-12T12:48:54.588Z,12.67
2023-02-12T12:51:34.737Z,12.23
2023-02-12T12:54:45.443Z,14.53
2023-02-12T12:57:44.418Z,9.17
2023-02-12T13:00:32.541Z,12.17
2023-02-12T13:03:09.193Z,10.00
2023-02-12T13:06:36.417Z,8.83
2023-02-12T13:09:36.853Z,9.83
2023-02-12T13:12:11.601Z,10.70
2023-02-12T13:15:13.666Z,7.40
2023-02-12T13:17:51.484Z,6.07
2023-02-12T13:20:36.621Z,8.73
2023-02-12T13:23:16.064Z,5.40
2023-02-12T13:26:04.537Z,6.60
2023-02-12T13:28:41.561Z,10.90
2023-02-12T13:31:31.795Z,12.00
2023-02-12T13:34:04.780Z,12.73
2023-02-12T13:36:33.530Z,11.70
2023-02-12T13:39:16.808Z,11.90
2023-02-12T13:41:54.631Z,12.37
2023-02-12T13:44:37.279Z,10.70
2023-02-12T13:47:28.341Z,8.87
2023-02-12T13:50:40.010Z,8.90
2023-02-12T13:53:22.709Z,10.10
2023-02-12T13:56:12.110Z,7.93
2023-02-12T13:58:40.320Z,8.57
2023-02-12T14:01:14.573Z,9.87
2023-02-12T14:03:41.890Z,11.60
2023-02-12T14:06:18.689Z,12.90
2023-02-12T14:08:51.624Z,9.40
2023-02-12T14:11:23.334Z,11.47
2023-02-12T14:14:03.150Z,13.30
2023-02-12T14:16:29.943Z,9.47
2023-02-12T14:19:38.425Z,8.20
2023-02-12T14:22:31.428Z,7.27
2023-02-12T14:25:32.057Z,8.03
2023-02-12T14:28:18.559Z,8.03
2023-02-12T14:30:45.686Z,6.37
2023-02-12T14:33:27.261Z,6.33
2023-02-12T14:36:39.094Z,6.13
2023-02-12T14:39:21.188Z,5.93
2023-02-12T14:42:11.965Z,6.40
2023-02-12T14:44:46.010Z,7.27
2023-02-12T14:47:32.795Z,7.00
2023-02-12T14:50:21.462Z,4.87
2023-02-12T14:52:55.809Z,5.90
2023-02-12T14:55:28.591Z,7.80
2023-02-12T14:58:03.744Z,7.90
2023-02-12T15:00:41.654Z,6.27
2023-02-12T15:03:14.985Z,6.40
2023-02-12T15:05:58.268Z,5.80
2023-02-12T15:08:36.411Z,5.50
2023-02-12T15:11:33.805Z,5.50
2023-02-12T15:14:06.914Z,6.53
2023-02-12T15:16:42.987Z,6.10
2023-02-12T15:19:46.087Z,5.77
2023-02-12T15:22:39.227Z,6.67
2023-02-12T15:25:32.064Z,7.10
2023-02-12T15:28:05.168Z,10.20
2023-02-12T15:30:35.754Z,7.30
2023-02-12T15:33:07.630Z,6.77
2023-02-12T15:35:38.241Z,5.97
2023-02-12T15:38:07.748Z,6.00
2023-02-12T15:40:34.911Z,6.07
2023-02-12T15:43:15.569Z,7.73
2023-02-12T15:45:52.246Z,8.40
2023-02-12T15:48:29.763Z,6.90
2023-02-12T15:51:15.224Z,10.87
2023-02-12T15:53:43.367Z,8.57
2023-02-12T15:56:18.232Z,8.13
2023-02-12T15:58:52.955Z,8.13
2023-02-12T16:01:41.946Z,8.30
2023-02-12T16:04:12.126Z,8.50
2023-02-12T16:06:41.764Z,7.97
2023-02-12T16:09:19.281Z,7.60
2023-02-12T16:11:48.249Z,7.20
2023-02-12T16:14:32.105Z,7.30
2023-02-12T16:16:59.787Z,13.07
2023-02-12T16:19:36.947Z,8.73
2023-02-12T16:22:15.915Z,7.00
2023-02-12T16:24:56.526Z,10.00
2023-02-12T16:27:33.675Z,9.67
2023-02-12T16:30:38.743Z,9.90
2023-02-12T16:33:32.172Z,9.10
2023-02-12T16:36:19.835Z,9.63
2023-02-12T16:38:55.767Z,8.60
2023-02-12T16:41:23.696Z,8.80
2023-02-12T16:44:02.792Z,10.47
2023-02-12T16:46:33.950Z,7.90
2023-02-12T16:49:02.483Z,8.53
2023-02-12T16:51:31.358Z,8.80
2023-02-12T16:54:04.832Z,8.87
2023-02-12T16:56:38.632Z,12.37
2023-02-12T16:59:05.774Z,11.40
2023-02-12T17:01:36.591Z,10.23
2023-02-12T17:04:13.565Z,9.73
2023-02-12T17:06:40.492Z,9.90
2023-02-12T17:09:07.535Z,10.13
2023-02-12T17:11:34.601Z,8.33
2023-02-12T17:14:01.486Z,8.00
2023-02-12T17:16:31.328Z,8.57
2023-02-12T17:19:00.288Z,7.93
2023-02-12T17:21:38.387Z,9.13
2023-02-12T17:24:15.653Z,8.63
2023-02-12T17:26:42.582Z,10.20
2023-02-12T17:29:09.523Z,8.70
2023-02-12T17:31:37.606Z,8.10
2023-02-12T17:34:05.645Z,11.10
2023-02-12T17:36:33.293Z,10.80
2023-02-12T17:39:01.151Z,11.20
2023-02-12T17:41:28.194Z,9.87
2023-02-12T17:43:55.265Z,9.87
2023-02-12T17:46:25.571Z,11.03
2023-02-12T17:48:52.638Z,14.70
2023-02-12T17:51:19.854Z,13.07
2023-02-12T17:53:47.497Z,14.40
2023-02-12T17:56:19.933Z,12.10
2023-02-12T17:58:48.330Z,16.03
2023-02-12T18:01:18.830Z,14.80
2023-02-12T18:03:46.196Z,13.07
2023-02-12T18:06:16.526Z,18.40
2023-02-12T18:08:43.746Z,18.20
2023-02-12T18:11:12.079Z,18.47
2023-02-12T18:13:39.682Z,19.40
2023-02-12T18:16:09.312Z,19.43
2023-02-12T18:18:37.494Z,20.50
2023-02-12T18:21:15.649Z,19.97
2023-02-12T18:23:43.836Z,24.27
2023-02-12T18:26:14.930Z,25.80
2023-02-12T18:28:42.584Z,26.60
2023-02-12T18:31:10.969Z,26.37
2023-02-12T18:33:38.222Z,30.97
2023-02-12T18:36:08.160Z,25.50
2023-02-12T18:38:37.794Z,31.03
2023-02-12T18:41:11.135Z,30.90
2023-02-12T18:43:38.634Z,30.00
2023-02-12T18:46:13.453Z,30.73
2023-02-12T18:48:41.314Z,28.03
2023-02-12T18:51:11.062Z,27.57
2023-02-12T18:53:38.061Z,30.57
2023-02-12T18:56:08.240Z,30.90
2023-02-12T18:58:35.977Z,27.97
2023-02-12T19:01:20.021Z,34.17
2023-02-12T19:03:50.925Z,33.37
2023-02-12T19:06:17.895Z,31.67
2023-02-12T19:08:44.780Z,35.07
2023-02-12T19:11:14.778Z,36.30
2023-02-12T19:13:42.468Z,33.83
2023-02-12T19:16:15.686Z,38.97
2023-02-12T19:18:42.806Z,35.07
2023-02-12T19:21:13.425Z,38.93
2023-02-12T19:23:40.624Z,34.50
2023-02-12T19:26:16.690Z,35.83
2023-02-12T19:28:43.896Z,39.63
2023-02-12T19:31:23.428Z,41.97
2023-02-12T19:33:55.309Z,40.47
2023-02-12T19:36:22.288Z,35.90
2023-02-12T19:38:49.582Z,38.93
2023-02-12T19:41:23.140Z,42.00
2023-02-12T19:44:00.825Z,43.33
2023-02-12T19:46:31.359Z,39.63
2023-02-12T19:49:01.201Z,36.80
2023-02-12T19:51:29.899Z,42.97
2023-02-12T19:54:04.641Z,41.90
2023-02-12T19:56:31.738Z,39.67
2023-02-12T19:58:59.424Z,39.13
2023-02-12T20:01:27.396Z,39.93
2023-02-12T20:03:55.006Z,41.70
2023-02-12T20:06:26.950Z,41.43
2023-02-12T20:08:55.463Z,46.97
2023-02-12T20:11:25.757Z,46.30
2023-02-12T20:13:53.269Z,44.90
2023-02-12T20:16:23.665Z,40.47
2023-02-12T20:18:54.098Z,52.20
2023-02-12T20:21:25.408Z,48.47
2023-02-12T20:23:52.453Z,43.50
2023-02-12T20:26:20.558Z,43.57
2023-02-12T20:28:49.010Z,40.70
2023-02-12T20:31:25.620Z,44.63
2023-02-12T20:34:02.244Z,48.80
2023-02-12T20:36:36.639Z,41.63
2023-02-12T20:39:05.872Z,42.97
2023-02-12T20:41:34.797Z,46.53
2023-02-12T20:44:01.734Z,48.23
2023-02-12T20:46:29.245Z,39.20
2023-02-12T20:48:57.567Z,46.53
2023-02-12T20:51:27.391Z,44.10
2023-02-12T20:53:55.597Z,42.80
2023-02-12T20:56:28.593Z,46.30
2023-02-12T20:58:56.158Z,43.33
2023-02-12T21:01:31.627Z,44.73
2023-02-12T21:04:07.933Z,45.27
2023-02-12T21:06:35.521Z,45.33
2023-02-12T21:09:02.638Z,40.77
2023-02-12T21:11:30.309Z,40.93
2023-02-12T21:14:18.458Z,43.40
2023-02-12T21:16:46.330Z,47.13
2023-02-12T21:19:16.950Z,46.57
2023-02-12T21:21:45.309Z,48.27
2023-02-12T21:24:17.469Z,44.80
2023-02-12T21:26:44.746Z,46.83
2023-02-12T21:29:11.669Z,41.67
2023-02-12T21:31:42.514Z,41.10
2023-02-12T21:34:14.955Z,46.13
2023-02-12T21:36:45.169Z,41.40
2023-02-12T21:39:15.780Z,40.23
2023-02-12T21:41:43.691Z,46.63
2023-02-12T21:44:17.377Z,41.37
2023-02-12T21:46:45.192Z,40.23
2023-02-12T21:49:14.171Z,41.83
2023-02-12T21:51:44.359Z,41.10
2023-02-12T21:54:15.535Z,45.87
2023-02-12T21:56:44.716Z,40.03
2023-02-12T21:59:13.441Z,41.70
2023-02-12T22:01:50.654Z,43.57
2023-02-12T22:04:18.889Z,43.37
2023-02-12T22:06:50.279Z,40.03
2023-02-12T22:09:20.547Z,38.27
2023-02-12T22:11:47.593Z,41.47
2023-02-12T22:14:17.466Z,37.40
2023-02-12T22:16:45.214Z,41.20
2023-02-12T22:19:12.413Z,41.27
2023-02-12T22:21:41.981Z,45.50
2023-02-12T22:24:15.751Z,46.27
2023-02-12T22:26:44.051Z,37.00
2023-02-12T22:29:13.785Z,43.63
2023-02-12T22:31:43.859Z,36.60
2023-02-12T22:34:14.445Z,38.07
2023-02-12T22:36:42.529Z,43.33
2023-02-12T22:39:12.989Z,40.77
2023-02-12T22:41:41.907Z,38.77
2023-02-12T22:44:12.212Z,42.53
2023-02-12T22:46:40.124Z,37.50
2023-02-12T22:49:07.022Z,37.43
2023-02-12T22:51:35.922Z,37.33
2023-02-12T22:54:03.417Z,35.33
2023-02-12T22:56:30.376Z,35.27
2023-02-12T22:59:01.094Z,35.90
2023-02-12T23:01:29.578Z,33.47
2023-02-12T23:03:57.319Z,37.57
2023-02-12T23:06:28.223Z,38.77
2023-02-12T23:09:01.850Z,34.40
2023-02-12T23:11:30.911Z,37.20
2023-02-12T23:13:58.204Z,33.47
2023-02-12T23:16:25.738Z,32.50
2023-02-12T23:18:58.172Z,41.53
2023-02-12T23:21:27.293Z,30.03
2023-02-12T23:23:55.554Z,38.17
2023-02-12T23:26:23.154Z,32.70
2023-02-12T23:28:50.165Z,33.87
2023-02-12T23:31:17.290Z,32.90
2023-02-12T23:33:44.258Z,33.90
2023-02-12T23:36:11.259Z,30.67
2023-02-12T23:38:38.179Z,34.93
2023-02-12T23:41:05.506Z,27.40
2023-02-12T23:43:35.496Z,33.10
2023-02-12T23:46:02.551Z,31.63
2023-02-12T23:48:29.633Z,27.33
2023-02-12T23:50:56.872Z,34.07
2023-02-12T23:53:23.857Z,28.63
2023-02-12T23:55:51.340Z,31.40
2023-02-12T23:58:18.428Z,34.83
